createdAt,value
2023-01-20T00:00:14.530Z,996.52
2023-01-20T00:01:14.395Z,996.53
2023-01-20T00:02:15.414Z,996.51
2023-01-20T00:03:14.371Z,996.51
2023-01-20T00:04:14.375Z,996.52
2023-01-20T00:05:14.680Z,996.59
2023-01-20T00:06:15.376Z,996.55
2023-01-20T00:07:14.349Z,996.55
2023-01-20T00:08:14.304Z,996.56
2023-01-20T00:09:14.308Z,996.54
2023-01-20T00:10:14.316Z,996.58
2023-01-20T00:11:14.269Z,996.56
2023-01-20T00:12:15.297Z,996.58
2023-01-20T00:13:14.289Z,996.54
2023-01-20T00:14:14.240Z,996.57
2023-01-20T00:15:14.492Z,996.57
2023-01-20T00:16:14.285Z,996.57
2023-01-20T00:17:14.245Z,996.62
2023-01-20T00:18:14.215Z,996.58
2023-01-20T00:19:14.211Z,996.56
2023-01-20T00:20:14.176Z,996.57
2023-01-20T00:21:15.181Z,996.63
2023-01-20T00:22:15.146Z,996.62
2023-01-20T00:23:14.151Z,996.62
2023-01-20T00:24:14.165Z,996.62
2023-01-20T00:25:14.304Z,996.64
2023-01-20T00:26:14.123Z,996.65
2023-01-20T00:27:14.089Z,996.66
2023-01-20T00:28:14.102Z,996.69
2023-01-20T00:29:14.070Z,996.65
2023-01-20T00:30:14.102Z,996.63
2023-01-20T00:31:14.157Z,996.74
2023-01-20T00:32:14.059Z,996.67
2023-01-20T00:33:14.699Z,996.70
2023-01-20T00:34:14.059Z,996.69
2023-01-20T00:35:14.387Z,996.68
2023-01-20T00:36:14.059Z,996.65
2023-01-20T00:37:14.979Z,996.68
2023-01-20T00:38:13.985Z,996.74
2023-01-20T00:39:14.003Z,996.71
2023-01-20T00:40:13.952Z,996.75
2023-01-20T00:41:14.969Z,996.74
2023-01-20T00:42:13.969Z,996.73
2023-01-20T00:43:13.924Z,996.75
2023-01-20T00:44:14.937Z,996.74
2023-01-20T00:45:14.161Z,996.73
2023-01-20T00:46:14.009Z,996.80
2023-01-20T00:47:14.898Z,996.90
2023-01-20T00:48:13.883Z,996.81
2023-01-20T00:49:14.854Z,996.90
2023-01-20T00:50:13.894Z,996.94
2023-01-20T00:51:13.879Z,996.89
2023-01-20T00:52:13.824Z,996.95
2023-01-20T00:53:13.820Z,996.92
2023-01-20T00:54:13.837Z,996.96
2023-01-20T00:55:15.242Z,996.91
2023-01-20T00:56:14.858Z,996.98
2023-01-20T00:57:13.772Z,997.00
2023-01-20T00:58:14.768Z,997.00
2023-01-20T00:59:14.757Z,997.01
2023-01-20T01:00:13.781Z,997.05
2023-01-20T01:01:14.847Z,997.12
2023-01-20T01:02:13.876Z,997.04
2023-01-20T01:03:13.727Z,997.07
2023-01-20T01:04:13.720Z,997.07
2023-01-20T01:05:14.016Z,997.12
2023-01-20T01:06:13.722Z,997.18
2023-01-20T01:07:13.650Z,997.09
2023-01-20T01:08:14.651Z,997.17
2023-01-20T01:09:14.642Z,997.19
2023-01-20T01:10:14.660Z,997.17
2023-01-20T01:11:13.625Z,997.28
2023-01-20T01:12:13.635Z,997.19
2023-01-20T01:13:13.613Z,997.25
2023-01-20T01:14:13.608Z,997.24
2023-01-20T01:15:13.780Z,997.25
2023-01-20T01:16:13.807Z,997.25
2023-01-20T01:17:13.568Z,997.28
2023-01-20T01:18:13.568Z,997.29
2023-01-20T01:19:13.532Z,997.24
2023-01-20T01:20:13.552Z,997.30
2023-01-20T01:21:13.554Z,997.31
2023-01-20T01:22:13.528Z,997.28
2023-01-20T01:23:13.507Z,997.31
2023-01-20T01:24:13.530Z,997.31
2023-01-20T01:25:13.731Z,997.35
2023-01-20T01:26:14.480Z,997.35
2023-01-20T01:27:13.435Z,997.44
2023-01-20T01:28:13.459Z,997.45
2023-01-20T01:29:13.447Z,997.44
2023-01-20T01:30:13.459Z,997.40
2023-01-20T01:31:14.238Z,997.48
2023-01-20T01:32:13.406Z,997.44
2023-01-20T01:33:13.385Z,997.49
2023-01-20T01:34:13.387Z,997.51
2023-01-20T01:35:13.819Z,997.50
2023-01-20T01:36:13.353Z,997.48
2023-01-20T01:37:13.357Z,997.53
2023-01-20T01:38:13.356Z,997.51
2023-01-20T01:39:13.314Z,997.50
2023-01-20T01:40:13.319Z,997.62
2023-01-20T01:41:14.279Z,997.63
2023-01-20T01:42:13.265Z,997.55
2023-01-20T01:43:13.287Z,997.61
2023-01-20T01:44:13.284Z,997.59
2023-01-20T01:45:13.966Z,997.57
2023-01-20T01:46:14.236Z,997.68
2023-01-20T01:47:14.214Z,997.58
2023-01-20T01:48:13.226Z,997.63
2023-01-20T01:49:13.230Z,997.67
2023-01-20T01:50:13.185Z,997.65
2023-01-20T01:51:13.187Z,997.67
2023-01-20T01:52:13.195Z,997.62
2023-01-20T01:53:14.164Z,997.71
2023-01-20T01:54:13.186Z,997.65
2023-01-20T01:55:13.409Z,997.68
2023-01-20T01:56:13.160Z,997.72
2023-01-20T01:57:13.175Z,997.63
2023-01-20T01:58:14.114Z,997.73
2023-01-20T01:59:14.090Z,997.73
2023-01-20T02:00:14.083Z,997.68
2023-01-20T02:01:13.252Z,997.69
2023-01-20T02:02:13.150Z,997.68
2023-01-20T02:03:13.068Z,997.71
2023-01-20T02:04:14.037Z,997.73
2023-01-20T02:05:13.272Z,997.74
2023-01-20T02:06:13.018Z,997.77
2023-01-20T02:07:13.021Z,997.76
2023-01-20T02:08:12.999Z,997.77
2023-01-20T02:09:12.995Z,997.81
2023-01-20T02:10:13.095Z,997.78
2023-01-20T02:11:13.658Z,997.80
2023-01-20T02:12:12.934Z,997.83
2023-01-20T02:13:12.958Z,997.84
2023-01-20T02:14:12.931Z,997.86
2023-01-20T02:15:13.124Z,997.88
2023-01-20T02:16:13.906Z,997.91
2023-01-20T02:17:12.894Z,997.92
2023-01-20T02:18:12.876Z,997.90
2023-01-20T02:19:13.891Z,997.92
2023-01-20T02:20:12.863Z,997.93
2023-01-20T02:21:12.858Z,997.91
2023-01-20T02:22:12.871Z,997.94
2023-01-20T02:23:12.825Z,997.98
2023-01-20T02:24:12.828Z,997.94
2023-01-20T02:25:13.234Z,997.99
2023-01-20T02:26:12.843Z,997.99
2023-01-20T02:27:12.787Z,998.01
2023-01-20T02:28:12.763Z,998.00
2023-01-20T02:29:13.782Z,998.00
2023-01-20T02:30:13.643Z,998.03
2023-01-20T02:31:12.785Z,998.04
2023-01-20T02:32:12.774Z,997.99
2023-01-20T02:33:12.705Z,998.01
2023-01-20T02:34:12.739Z,997.97
2023-01-20T02:35:13.929Z,998.02
2023-01-20T02:36:12.688Z,998.05
2023-01-20T02:37:12.717Z,998.06
2023-01-20T02:38:12.703Z,998.02
2023-01-20T02:39:12.670Z,998.04
2023-01-20T02:40:13.636Z,998.08
2023-01-20T02:41:12.647Z,998.09
2023-01-20T02:42:12.651Z,998.15
2023-01-20T02:43:12.637Z,998.12
2023-01-20T02:44:13.587Z,998.12
2023-01-20T02:45:13.971Z,998.17
2023-01-20T02:46:13.583Z,998.20
2023-01-20T02:47:12.571Z,998.21
2023-01-20T02:48:12.576Z,998.17
2023-01-20T02:49:12.543Z,998.13
2023-01-20T02:50:12.548Z,998.18
2023-01-20T02:51:14.151Z,998.14
2023-01-20T02:52:13.515Z,998.18
2023-01-20T02:53:12.505Z,998.16
2023-01-20T02:54:12.504Z,998.18
2023-01-20T02:55:12.804Z,998.16
2023-01-20T02:56:12.472Z,998.15
2023-01-20T02:57:12.516Z,998.20
2023-01-20T02:58:13.500Z,998.16
2023-01-20T02:59:12.442Z,998.23
2023-01-20T03:00:12.406Z,998.18
2023-01-20T03:01:13.518Z,998.22
2023-01-20T03:02:12.457Z,998.22
2023-01-20T03:03:13.395Z,998.20
2023-01-20T03:04:13.390Z,998.24
2023-01-20T03:05:13.690Z,998.22
2023-01-20T03:06:12.360Z,998.23
2023-01-20T03:07:12.400Z,998.27
2023-01-20T03:08:13.337Z,998.23
2023-01-20T03:09:13.327Z,998.25
2023-01-20T03:10:12.330Z,998.26
2023-01-20T03:11:12.320Z,998.30
2023-01-20T03:12:12.296Z,998.26
2023-01-20T03:13:13.370Z,998.28
2023-01-20T03:14:12.304Z,998.33
2023-01-20T03:15:12.660Z,998.38
2023-01-20T03:16:12.354Z,998.36
2023-01-20T03:17:12.252Z,998.29
2023-01-20T03:18:12.226Z,998.30
2023-01-20T03:19:12.224Z,998.35
2023-01-20T03:20:12.242Z,998.41
2023-01-20T03:21:12.224Z,998.44
2023-01-20T03:22:12.177Z,998.41
2023-01-20T03:23:12.200Z,998.42
2023-01-20T03:24:12.151Z,998.47
2023-01-20T03:25:13.570Z,998.45
2023-01-20T03:26:12.120Z,998.52
2023-01-20T03:27:13.156Z,998.45
2023-01-20T03:28:12.144Z,998.44
2023-01-20T03:29:12.101Z,998.48
2023-01-20T03:30:12.130Z,998.49
2023-01-20T03:31:12.195Z,998.52
2023-01-20T03:32:12.065Z,998.52
2023-01-20T03:33:13.096Z,998.50
2023-01-20T03:34:12.045Z,998.52
2023-01-20T03:35:12.092Z,998.61
2023-01-20T03:36:12.035Z,998.59
2023-01-20T03:37:13.019Z,998.57
2023-01-20T03:38:12.005Z,998.61
2023-01-20T03:39:12.016Z,998.57
2023-01-20T03:40:12.002Z,998.59
2023-01-20T03:41:11.990Z,998.69
2023-01-20T03:42:11.970Z,998.69
2023-01-20T03:43:11.976Z,998.64
2023-01-20T03:44:12.927Z,998.64
2023-01-20T03:45:12.004Z,998.73
2023-01-20T03:46:13.011Z,998.76
2023-01-20T03:47:11.909Z,998.72
2023-01-20T03:48:11.907Z,998.69
2023-01-20T03:49:11.875Z,998.69
2023-01-20T03:50:12.896Z,998.68
2023-01-20T03:51:11.906Z,998.73
2023-01-20T03:52:11.863Z,998.71
2023-01-20T03:53:12.865Z,998.62
2023-01-20T03:54:11.830Z,998.74
2023-01-20T03:55:11.839Z,998.71
2023-01-20T03:56:11.806Z,998.71
2023-01-20T03:57:11.794Z,998.72
2023-01-20T03:58:12.815Z,998.74
2023-01-20T03:59:11.808Z,998.74
2023-01-20T04:00:12.761Z,998.75
2023-01-20T04:01:18.497Z,998.74
2023-01-20T04:02:12.940Z,998.82
2023-01-20T04:03:11.788Z,998.77
2023-01-20T04:04:11.730Z,998.78
2023-01-20T04:05:11.814Z,998.77
2023-01-20T04:06:11.700Z,998.76
2023-01-20T04:07:11.681Z,998.76
2023-01-20T04:08:11.679Z,998.81
2023-01-20T04:09:12.662Z,998.81
2023-01-20T04:10:11.676Z,998.84
2023-01-20T04:11:11.681Z,998.82
2023-01-20T04:12:11.674Z,998.88
2023-01-20T04:13:11.617Z,998.84
2023-01-20T04:14:11.633Z,998.81
2023-01-20T04:15:11.620Z,998.91
2023-01-20T04:16:11.678Z,998.88
2023-01-20T04:17:11.605Z,998.87
2023-01-20T04:18:11.654Z,998.84
2023-01-20T04:19:11.557Z,998.95
2023-01-20T04:20:12.564Z,998.96
2023-01-20T04:21:11.535Z,998.90
2023-01-20T04:22:11.530Z,998.94
2023-01-20T04:23:11.547Z,998.97
2023-01-20T04:24:12.518Z,999.00
2023-01-20T04:25:11.665Z,999.00
2023-01-20T04:26:11.505Z,998.93
2023-01-20T04:27:12.467Z,998.94
2023-01-20T04:28:12.477Z,998.92
2023-01-20T04:29:13.335Z,998.97
2023-01-20T04:30:12.486Z,999.00
2023-01-20T04:31:28.671Z,998.96
2023-01-20T04:32:12.454Z,998.94
2023-01-20T04:33:11.444Z,998.98
2023-01-20T04:34:11.419Z,999.00
2023-01-20T04:35:11.398Z,999.03
2023-01-20T04:36:11.397Z,999.08
2023-01-20T04:37:12.366Z,999.02
2023-01-20T04:38:11.339Z,999.08
2023-01-20T04:39:12.361Z,999.05
2023-01-20T04:40:11.352Z,999.10
2023-01-20T04:41:11.338Z,999.09
2023-01-20T04:42:11.326Z,999.09
2023-01-20T04:43:11.336Z,999.08
2023-01-20T04:44:11.306Z,999.10
2023-01-20T04:45:11.301Z,999.12
2023-01-20T04:46:11.306Z,999.12
2023-01-20T04:47:12.260Z,999.16
2023-01-20T04:48:11.265Z,999.19
2023-01-20T04:49:11.244Z,999.24
2023-01-20T04:50:11.252Z,999.15
2023-01-20T04:51:11.228Z,999.19
2023-01-20T04:52:11.199Z,999.28
2023-01-20T04:53:11.204Z,999.26
2023-01-20T04:54:11.215Z,999.28
2023-01-20T04:55:11.179Z,999.35
2023-01-20T04:56:11.184Z,999.29
2023-01-20T04:57:11.152Z,999.36
2023-01-20T04:58:11.133Z,999.35
2023-01-20T04:59:11.139Z,999.35
2023-01-20T05:00:12.142Z,999.30
2023-01-20T05:01:11.183Z,999.35
2023-01-20T05:02:12.182Z,999.41
2023-01-20T05:03:11.124Z,999.41
2023-01-20T05:04:11.065Z,999.43
2023-01-20T05:05:12.167Z,999.39
2023-01-20T05:06:11.068Z,999.43
2023-01-20T05:07:11.026Z,999.43
2023-01-20T05:08:12.049Z,999.46
2023-01-20T05:09:11.013Z,999.43
2023-01-20T05:10:13.102Z,999.49
2023-01-20T05:11:11.007Z,999.42
2023-01-20T05:12:12.035Z,999.47
2023-01-20T05:13:11.962Z,999.48
2023-01-20T05:14:10.992Z,999.48
2023-01-20T05:15:10.950Z,999.51
2023-01-20T05:16:11.982Z,999.51
2023-01-20T05:17:10.920Z,999.50
2023-01-20T05:18:10.898Z,999.52
2023-01-20T05:19:10.891Z,999.55
2023-01-20T05:20:10.944Z,999.53
2023-01-20T05:21:10.881Z,999.61
2023-01-20T05:22:10.916Z,999.59
2023-01-20T05:23:10.845Z,999.61
2023-01-20T05:24:11.860Z,999.60
2023-01-20T05:25:10.837Z,999.57
2023-01-20T05:26:10.812Z,999.61
2023-01-20T05:27:10.820Z,999.63
2023-01-20T05:28:11.863Z,999.64
2023-01-20T05:29:10.788Z,999.65
2023-01-20T05:30:10.807Z,999.69
2023-01-20T05:31:10.873Z,999.67
2023-01-20T05:32:10.757Z,999.70
2023-01-20T05:33:10.780Z,999.66
2023-01-20T05:34:11.731Z,999.74
2023-01-20T05:35:11.789Z,999.72
2023-01-20T05:36:10.729Z,999.71
2023-01-20T05:37:10.715Z,999.70
2023-01-20T05:38:10.726Z,999.75
2023-01-20T05:39:10.692Z,999.80
2023-01-20T05:40:10.710Z,999.79
2023-01-20T05:41:11.676Z,999.81
2023-01-20T05:42:10.662Z,999.87
2023-01-20T05:43:12.862Z,999.83
2023-01-20T05:44:11.657Z,999.80
2023-01-20T05:45:11.617Z,999.83
2023-01-20T05:46:11.636Z,999.83
2023-01-20T05:47:10.641Z,999.84
2023-01-20T05:48:10.592Z,999.82
2023-01-20T05:49:10.570Z,999.84
2023-01-20T05:50:10.553Z,999.88
2023-01-20T05:51:10.576Z,999.81
2023-01-20T05:52:10.569Z,999.85
2023-01-20T05:53:10.564Z,999.87
2023-01-20T05:54:10.535Z,999.91
2023-01-20T05:55:10.496Z,999.91
2023-01-20T05:56:11.478Z,999.86
2023-01-20T05:57:10.496Z,999.95
2023-01-20T05:58:10.522Z,999.95
2023-01-20T05:59:10.469Z,999.92
2023-01-20T06:00:10.449Z,999.91
2023-01-20T06:01:10.473Z,999.94
2023-01-20T06:02:10.437Z,999.91
2023-01-20T06:03:11.400Z,1000.00
2023-01-20T06:04:10.457Z,999.99
2023-01-20T06:05:10.384Z,1000.00
2023-01-20T06:06:10.388Z,999.95
2023-01-20T06:07:10.367Z,999.97
2023-01-20T06:08:10.376Z,999.98
2023-01-20T06:09:10.356Z,1000.01
2023-01-20T06:10:10.372Z,1000.04
2023-01-20T06:11:10.351Z,1000.04
2023-01-20T06:12:10.319Z,1000.03
2023-01-20T06:13:10.306Z,1000.01
2023-01-20T06:14:10.312Z,1000.08
2023-01-20T06:15:10.279Z,1000.03
2023-01-20T06:16:11.393Z,1000.07
2023-01-20T06:17:10.257Z,1000.10
2023-01-20T06:18:10.271Z,1000.07
2023-01-20T06:19:10.231Z,1000.13
2023-01-20T06:20:10.263Z,1000.09
2023-01-20T06:21:10.253Z,1000.11
2023-01-20T06:22:10.215Z,1000.12
2023-01-20T06:23:10.202Z,1000.14
2023-01-20T06:24:10.206Z,1000.17
2023-01-20T06:25:10.179Z,1000.22
2023-01-20T06:26:10.222Z,1000.21
2023-01-20T06:27:10.175Z,1000.24
2023-01-20T06:28:11.174Z,1000.25
2023-01-20T06:29:10.127Z,1000.30
2023-01-20T06:30:10.112Z,1000.28
2023-01-20T06:31:11.240Z,1000.29
2023-01-20T06:32:11.098Z,1000.34
2023-01-20T06:33:10.117Z,1000.33
2023-01-20T06:34:10.081Z,1000.38
2023-01-20T06:35:11.365Z,1000.42
2023-01-20T06:36:10.043Z,1000.42
2023-01-20T06:37:10.054Z,1000.42
2023-01-20T06:38:10.033Z,1000.44
2023-01-20T06:39:10.052Z,1000.38
2023-01-20T06:40:11.045Z,1000.40
2023-01-20T06:41:10.993Z,1000.46
2023-01-20T06:42:11.571Z,1000.46
2023-01-20T06:43:09.996Z,1000.53
2023-01-20T06:44:09.981Z,1000.53
2023-01-20T06:45:09.980Z,1000.54
2023-01-20T06:46:10.036Z,1000.56
2023-01-20T06:47:09.947Z,1000.62
2023-01-20T06:48:09.914Z,1000.69
2023-01-20T06:49:09.921Z,1000.66
2023-01-20T06:50:09.893Z,1000.65
2023-01-20T06:51:10.910Z,1000.67
2023-01-20T06:52:10.883Z,1000.68
2023-01-20T06:53:09.901Z,1000.76
2023-01-20T06:54:09.901Z,1000.69
2023-01-20T06:55:10.845Z,1000.73
2023-01-20T06:56:09.851Z,1000.70
2023-01-20T06:57:10.835Z,1000.73
2023-01-20T06:58:09.857Z,1000.72
2023-01-20T06:59:09.837Z,1000.74
2023-01-20T07:00:09.796Z,1000.78
2023-01-20T07:01:09.978Z,1000.74
2023-01-20T07:02:09.913Z,1000.81
2023-01-20T07:03:09.799Z,1000.80
2023-01-20T07:04:10.736Z,1000.79
2023-01-20T07:05:09.769Z,1000.83
2023-01-20T07:06:09.751Z,1000.88
2023-01-20T07:07:09.702Z,1000.89
2023-01-20T07:08:09.724Z,1000.88
2023-01-20T07:09:10.741Z,1000.88
2023-01-20T07:10:09.714Z,1000.88
2023-01-20T07:11:09.679Z,1000.89
2023-01-20T07:12:09.657Z,1000.90
2023-01-20T07:13:09.656Z,1000.96
2023-01-20T07:14:09.779Z,1000.93
2023-01-20T07:15:09.633Z,1000.91
2023-01-20T07:16:13.067Z,1000.94
2023-01-20T07:17:09.620Z,1000.93
2023-01-20T07:18:09.601Z,1000.98
2023-01-20T07:19:09.600Z,1001.00
2023-01-20T07:20:09.638Z,1001.02
2023-01-20T07:21:09.555Z,1001.01
2023-01-20T07:22:09.595Z,1001.01
2023-01-20T07:23:10.575Z,1001.01
2023-01-20T07:24:10.536Z,1001.00
2023-01-20T07:25:09.525Z,1001.03
2023-01-20T07:26:09.602Z,1001.06
2023-01-20T07:27:09.516Z,1001.08
2023-01-20T07:28:09.511Z,1001.04
2023-01-20T07:29:09.504Z,1001.07
2023-01-20T07:30:09.511Z,1001.03
2023-01-20T07:31:09.475Z,1001.10
2023-01-20T07:32:09.492Z,1001.12
2023-01-20T07:33:09.445Z,1001.19
2023-01-20T07:34:09.469Z,1001.11
2023-01-20T07:35:09.431Z,1001.12
2023-01-20T07:36:09.414Z,1001.18
2023-01-20T07:37:09.419Z,1001.14
2023-01-20T07:38:09.380Z,1001.24
2023-01-20T07:39:09.383Z,1001.25
2023-01-20T07:40:09.365Z,1001.24
2023-01-20T07:41:09.356Z,1001.21
2023-01-20T07:42:09.353Z,1001.19
2023-01-20T07:43:09.351Z,1001.17
2023-01-20T07:44:10.328Z,1001.24
2023-01-20T07:45:09.315Z,1001.19
2023-01-20T07:46:09.370Z,1001.21
2023-01-20T07:47:09.293Z,1001.20
2023-01-20T07:48:10.317Z,1001.21
2023-01-20T07:49:12.222Z,1001.27
2023-01-20T07:50:09.237Z,1001.28
2023-01-20T07:51:09.223Z,1001.21
2023-01-20T07:52:09.224Z,1001.18
2023-01-20T07:53:09.227Z,1001.21
2023-01-20T07:54:10.202Z,1001.19
2023-01-20T07:55:09.221Z,1001.26
2023-01-20T07:56:09.174Z,1001.25
2023-01-20T07:57:09.178Z,1001.19
2023-01-20T07:58:09.156Z,1001.22
2023-01-20T07:59:09.162Z,1001.25
2023-01-20T08:00:09.158Z,1001.24
2023-01-20T08:01:09.356Z,1001.30
2023-01-20T08:02:09.116Z,1001.29
2023-01-20T08:03:09.103Z,1001.31
2023-01-20T08:04:09.103Z,1001.29
2023-01-20T08:05:09.142Z,1001.32
2023-01-20T08:06:09.102Z,1001.32
2023-01-20T08:07:09.070Z,1001.32
2023-01-20T08:08:09.046Z,1001.33
2023-01-20T08:09:09.110Z,1001.36
2023-01-20T08:10:09.139Z,1001.35
2023-01-20T08:11:09.015Z,1001.40
2023-01-20T08:12:10.024Z,1001.40
2023-01-20T08:13:16.616Z,1001.44
2023-01-20T08:14:08.969Z,1001.49
2023-01-20T08:15:08.983Z,1001.48
2023-01-20T08:16:08.965Z,1001.48
2023-01-20T08:17:08.968Z,1001.45
2023-01-20T08:18:08.988Z,1001.49
2023-01-20T08:19:08.912Z,1001.58
2023-01-20T08:20:08.937Z,1001.53
2023-01-20T08:21:08.916Z,1001.57
2023-01-20T08:22:08.921Z,1001.58
2023-01-20T08:23:09.871Z,1001.57
2023-01-20T08:24:08.883Z,1001.59
2023-01-20T08:25:09.872Z,1001.56
2023-01-20T08:26:08.849Z,1001.65
2023-01-20T08:27:08.869Z,1001.65
2023-01-20T08:28:09.852Z,1001.65
2023-01-20T08:29:08.863Z,1001.60
2023-01-20T08:30:08.794Z,1001.65
2023-01-20T08:31:08.899Z,1001.67
2023-01-20T08:32:09.462Z,1001.69
2023-01-20T08:33:08.965Z,1001.74
2023-01-20T08:34:08.817Z,1001.71
2023-01-20T08:35:09.501Z,1001.74
2023-01-20T08:36:09.744Z,1001.80
2023-01-20T08:37:08.727Z,1001.73
2023-01-20T08:38:08.725Z,1001.74
2023-01-20T08:39:08.756Z,1001.83
2023-01-20T08:40:08.726Z,1001.84
2023-01-20T08:41:08.680Z,1001.79
2023-01-20T08:42:08.658Z,1001.83
2023-01-20T08:43:08.664Z,1001.86
2023-01-20T08:44:08.662Z,1001.80
2023-01-20T08:45:08.658Z,1001.89
2023-01-20T08:46:08.775Z,1001.83
2023-01-20T08:47:08.646Z,1001.89
2023-01-20T08:48:08.605Z,1001.88
2023-01-20T08:49:08.620Z,1001.88
2023-01-20T08:50:08.688Z,1001.90
2023-01-20T08:51:08.627Z,1001.88
2023-01-20T08:52:10.726Z,1001.90
2023-01-20T08:53:08.549Z,1001.88
2023-01-20T08:54:08.542Z,1001.96
2023-01-20T08:55:08.537Z,1001.95
2023-01-20T08:56:08.562Z,1001.92
2023-01-20T08:57:08.524Z,1002.00
2023-01-20T08:58:08.537Z,1002.02
2023-01-20T08:59:08.489Z,1002.01
2023-01-20T09:00:08.478Z,1001.97
2023-01-20T09:01:09.514Z,1002.02
2023-01-20T09:02:08.502Z,1002.00
2023-01-20T09:03:09.415Z,1002.06
2023-01-20T09:04:08.490Z,1002.02
2023-01-20T09:05:08.428Z,1002.06
2023-01-20T09:06:09.431Z,1002.04
2023-01-20T09:07:08.419Z,1002.09
2023-01-20T09:08:08.499Z,1002.10
2023-01-20T09:09:08.396Z,1002.14
2023-01-20T09:10:08.927Z,1002.19
2023-01-20T09:11:08.407Z,1002.16
2023-01-20T09:12:08.358Z,1002.19
2023-01-20T09:13:08.346Z,1002.20
2023-01-20T09:14:08.326Z,1002.20
2023-01-20T09:15:09.364Z,1002.22
2023-01-20T09:16:08.450Z,1002.30
2023-01-20T09:17:08.291Z,1002.31
2023-01-20T09:18:08.264Z,1002.27
2023-01-20T09:19:08.268Z,1002.30
2023-01-20T09:20:08.269Z,1002.36
2023-01-20T09:21:08.256Z,1002.34
2023-01-20T09:22:08.296Z,1002.39
2023-01-20T09:23:08.208Z,1002.36
2023-01-20T09:24:08.210Z,1002.36
2023-01-20T09:25:08.201Z,1002.42
2023-01-20T09:26:08.216Z,1002.44
2023-01-20T09:27:08.163Z,1002.40
2023-01-20T09:28:08.224Z,1002.41
2023-01-20T09:29:08.158Z,1002.44
2023-01-20T09:30:08.157Z,1002.51
2023-01-20T09:31:08.239Z,1002.47
2023-01-20T09:32:08.141Z,1002.52
2023-01-20T09:33:08.139Z,1002.56
2023-01-20T09:34:08.105Z,1002.55
2023-01-20T09:35:08.920Z,1002.51
2023-01-20T09:36:08.076Z,1002.58
2023-01-20T09:37:08.102Z,1002.56
2023-01-20T09:38:08.071Z,1002.59
2023-01-20T09:39:08.033Z,1002.54
2023-01-20T09:40:08.128Z,1002.60
2023-01-20T09:41:08.011Z,1002.58
2023-01-20T09:42:08.040Z,1002.62
2023-01-20T09:43:08.020Z,1002.62
2023-01-20T09:44:08.012Z,1002.67
2023-01-20T09:45:07.974Z,1002.69
2023-01-20T09:46:08.045Z,1002.69
2023-01-20T09:47:07.962Z,1002.64
2023-01-20T09:48:07.966Z,1002.65
2023-01-20T09:49:07.934Z,1002.72
2023-01-20T09:50:07.948Z,1002.72
2023-01-20T09:51:07.952Z,1002.72
2023-01-20T09:52:07.966Z,1002.68
2023-01-20T09:53:07.885Z,1002.72
2023-01-20T09:54:07.883Z,1002.73
2023-01-20T09:55:07.877Z,1002.74
2023-01-20T09:56:08.605Z,1002.74
2023-01-20T09:57:07.889Z,1002.71
2023-01-20T09:58:07.838Z,1002.76
2023-01-20T09:59:07.819Z,1002.74
2023-01-20T10:00:07.817Z,1002.78
2023-01-20T10:01:08.891Z,1002.80
2023-01-20T10:02:07.820Z,1002.85
2023-01-20T10:03:08.787Z,1002.82
2023-01-20T10:04:07.783Z,1002.86
2023-01-20T10:05:07.819Z,1002.81
2023-01-20T10:06:07.758Z,1002.80
2023-01-20T10:07:07.731Z,1002.88
2023-01-20T10:08:08.739Z,1002.89
2023-01-20T10:09:07.749Z,1002.85
2023-01-20T10:10:07.720Z,1002.84
2023-01-20T10:11:07.742Z,1002.86
2023-01-20T10:12:07.684Z,1002.94
2023-01-20T10:13:07.693Z,1002.91
2023-01-20T10:14:07.681Z,1002.85
2023-01-20T10:15:07.676Z,1002.97
2023-01-20T10:16:07.787Z,1002.90
2023-01-20T10:17:07.658Z,1002.93
2023-01-20T10:18:07.632Z,1002.89
2023-01-20T10:19:08.591Z,1002.90
2023-01-20T10:20:08.610Z,1002.88
2023-01-20T10:21:07.572Z,1002.90
2023-01-20T10:22:07.561Z,1002.94
2023-01-20T10:23:08.582Z,1002.96
2023-01-20T10:24:07.551Z,1003.01
2023-01-20T10:25:07.550Z,1002.89
2023-01-20T10:26:07.589Z,1002.98
2023-01-20T10:27:07.505Z,1002.93
2023-01-20T10:28:08.503Z,1002.93
2023-01-20T10:29:07.517Z,1002.99
2023-01-20T10:30:07.492Z,1002.89
2023-01-20T10:31:07.601Z,1002.89
2023-01-20T10:32:08.453Z,1002.90
2023-01-20T10:33:07.455Z,1002.86
2023-01-20T10:34:07.442Z,1002.94
2023-01-20T10:35:07.427Z,1002.92
2023-01-20T10:36:08.461Z,1002.95
2023-01-20T10:37:07.399Z,1002.86
2023-01-20T10:38:07.386Z,1002.95
2023-01-20T10:39:07.379Z,1002.89
2023-01-20T10:40:07.409Z,1002.91
2023-01-20T10:41:07.360Z,1002.90
2023-01-20T10:42:07.383Z,1002.97
2023-01-20T10:43:07.366Z,1002.93
2023-01-20T10:44:07.322Z,1002.91
2023-01-20T10:45:07.320Z,1002.86
2023-01-20T10:46:07.356Z,1002.82
2023-01-20T10:47:08.305Z,1002.89
2023-01-20T10:48:07.312Z,1002.90
2023-01-20T10:49:07.316Z,1002.85
2023-01-20T10:50:07.362Z,1002.84
2023-01-20T10:51:07.254Z,1002.86
2023-01-20T10:52:07.229Z,1002.86
2023-01-20T10:53:07.229Z,1002.88
2023-01-20T10:54:07.260Z,1002.84
2023-01-20T10:55:07.263Z,1002.84
2023-01-20T10:56:07.211Z,1002.86
2023-01-20T10:57:07.177Z,1002.90
2023-01-20T10:58:07.239Z,1002.88
2023-01-20T10:59:07.159Z,1002.91
2023-01-20T11:00:07.165Z,1002.88
2023-01-20T11:01:07.183Z,1002.91
2023-01-20T11:02:12.292Z,1002.86
2023-01-20T11:03:08.148Z,1002.93
2023-01-20T11:04:14.733Z,1002.87
2023-01-20T11:05:07.108Z,1002.94
2023-01-20T11:06:07.109Z,1002.98
2023-01-20T11:07:07.073Z,1002.92
2023-01-20T11:08:07.050Z,1002.97
2023-01-20T11:09:07.054Z,1002.93
2023-01-20T11:10:07.042Z,1003.05
2023-01-20T11:11:08.054Z,1003.03
2023-01-20T11:12:07.010Z,1003.04
2023-01-20T11:13:07.006Z,1003.03
2023-01-20T11:14:07.039Z,1003.07
2023-01-20T11:15:06.992Z,1003.05
2023-01-20T11:16:07.028Z,1003.07
2023-01-20T11:17:06.977Z,1003.09
2023-01-20T11:18:07.005Z,1003.08
2023-01-20T11:19:06.944Z,1003.15
2023-01-20T11:20:06.935Z,1003.13
2023-01-20T11:21:06.928Z,1003.10
2023-01-20T11:22:06.902Z,1003.11
2023-01-20T11:23:06.930Z,1003.08
2023-01-20T11:24:06.908Z,1003.08
2023-01-20T11:25:07.872Z,1003.12
2023-01-20T11:26:06.861Z,1003.08
2023-01-20T11:27:06.873Z,1003.14
2023-01-20T11:28:07.858Z,1003.17
2023-01-20T11:29:06.860Z,1003.11
2023-01-20T11:30:07.843Z,1003.10
2023-01-20T11:31:06.865Z,1003.11
2023-01-20T11:32:06.819Z,1003.14
2023-01-20T11:33:06.848Z,1003.12
2023-01-20T11:34:06.806Z,1003.17
2023-01-20T11:35:06.769Z,1003.12
2023-01-20T11:36:06.761Z,1003.11
2023-01-20T11:37:06.766Z,1003.20
2023-01-20T11:38:06.743Z,1003.16
2023-01-20T11:39:06.724Z,1003.16
2023-01-20T11:40:06.724Z,1003.23
2023-01-20T11:41:07.731Z,1003.22
2023-01-20T11:42:06.691Z,1003.20
2023-01-20T11:43:06.687Z,1003.18
2023-01-20T11:44:06.702Z,1003.25
2023-01-20T11:45:20.903Z,1003.18
2023-01-20T11:46:07.682Z,1003.23
2023-01-20T11:47:06.660Z,1003.23
2023-01-20T11:48:06.627Z,1003.20
2023-01-20T11:49:06.614Z,1003.24
2023-01-20T11:50:06.639Z,1003.26
2023-01-20T11:51:07.603Z,1003.25
2023-01-20T11:52:07.616Z,1003.29
2023-01-20T11:53:06.598Z,1003.28
2023-01-20T11:54:06.562Z,1003.27
2023-01-20T11:55:07.540Z,1003.26
2023-01-20T11:56:06.555Z,1003.30
2023-01-20T11:57:06.557Z,1003.31
2023-01-20T11:58:06.533Z,1003.27
2023-01-20T11:59:06.509Z,1003.32
2023-01-20T12:00:06.493Z,1003.33
2023-01-20T12:01:07.525Z,1003.29
2023-01-20T12:02:06.556Z,1003.25
2023-01-20T12:03:06.468Z,1003.33
2023-01-20T12:04:06.489Z,1003.27
2023-01-20T12:05:06.502Z,1003.33
2023-01-20T12:06:06.431Z,1003.39
2023-01-20T12:07:07.468Z,1003.30
2023-01-20T12:08:07.409Z,1003.31
2023-01-20T12:09:06.397Z,1003.36
2023-01-20T12:10:06.394Z,1003.31
2023-01-20T12:11:06.393Z,1003.36
2023-01-20T12:12:06.411Z,1003.36
2023-01-20T12:13:06.359Z,1003.35
2023-01-20T12:14:06.345Z,1003.39
2023-01-20T12:15:06.370Z,1003.36
2023-01-20T12:16:06.393Z,1003.41